Back to Top

Language: 

My Weather Underground Personal Weather Station Historical Data with Graphs...

Delerius Weather Station Historical Data
Daily Summary for April 6, 2017 Units:  Both    English   Metric
« Previous Day
Next Day »
Daily Weekly Monthly Yearly Custom
  High: Low: Average:
Temperature: 54.9 °F /  12.7 °C 36.1 °F /  2.3 °C 46.4 °F /  8 °C
Dew Point: 44.3 °F /  6.8 °C 34.3 °F /  1.3 °C 40.3 °F /  4.6 °C
Humidity: 97 % 65 % 80 %
Wind Speed: 14.0 mph /  22.5 km/h - 5.7 mph /  9.2 km/h
Wind Gust: 24.0 mph /  38.6 km/h - -
Wind:- - WNW
Pressure: 30.47 in /  1031.7 hPa 30.36 in /  1028 hPa -
Precipitation: 0.00 in /  0 mm    
Historical Graphs
 
 
Tabular Data for April 6, 2017
Time Temperature Dew Point Pressure Wind Wind Speed Wind Gust Humidity Rainfall Rate (Hourly) solar Conditions
00:02 44.1 °F /  6.7 °C 39.8 °F /  4.3 °C 30.47 in /  1031.7 hPa Calm   4.0 mph /  6.4 km/h 85 % 0.00 in /  0 mm 0 W/m2
00:07 43.9 °F /  6.6 °C 39.7 °F /  4.3 °C 30.47 in /  1031.7 hPa West 1.0 mph /  1.6 km/h 4.0 mph /  6.4 km/h 85 % 0.00 in /  0 mm 0 W/m2
00:12 43.5 °F /  6.4 °C 39.6 °F /  4.2 °C 30.47 in /  1031.7 hPa West 1.0 mph /  1.6 km/h 4.0 mph /  6.4 km/h 86 % 0.00 in /  0 mm 0 W/m2
00:17 43.3 °F /  6.3 °C 39.1 °F /  3.9 °C 30.47 in /  1031.7 hPa Calm   3.0 mph /  4.8 km/h 85 % 0.00 in /  0 mm 0 W/m2
00:22 43.2 °F /  6.2 °C 39.3 °F /  4.1 °C 30.47 in /  1031.7 hPa Calm   2.0 mph /  3.2 km/h 86 % 0.00 in /  0 mm 0 W/m2
00:27 43.0 °F /  6.1 °C 39.1 °F /  3.9 °C 30.47 in /  1031.7 hPa West 1.0 mph /  1.6 km/h 2.0 mph /  3.2 km/h 86 % 0.00 in /  0 mm 0 W/m2
00:32 42.6 °F /  5.9 °C 38.7 °F /  3.7 °C 30.47 in /  1031.7 hPa Calm   2.0 mph /  3.2 km/h 86 % 0.00 in /  0 mm 0 W/m2
00:38 42.4 °F /  5.8 °C 38.5 °F /  3.6 °C 30.47 in /  1031.7 hPa Calm   1.0 mph /  1.6 km/h 86 % 0.00 in /  0 mm 0 W/m2
00:43 42.3 °F /  5.7 °C 38.7 °F /  3.7 °C 30.47 in /  1031.7 hPa Calm   1.0 mph /  1.6 km/h 87 % 0.00 in /  0 mm 0 W/m2
00:48 42.1 °F /  5.6 °C 38.5 °F /  3.6 °C 30.47 in /  1031.7 hPa Calm   1.0 mph /  1.6 km/h 87 % 0.00 in /  0 mm 0 W/m2
00:53 41.7 °F /  5.4 °C 38.1 °F /  3.4 °C 30.47 in /  1031.7 hPa Calm   1.0 mph /  1.6 km/h 87 % 0.00 in /  0 mm 0 W/m2
00:58 41.5 °F /  5.3 °C 38.0 °F /  3.3 °C 30.46 in /  1031.4 hPa West 1.0 mph /  1.6 km/h 4.0 mph /  6.4 km/h 87 % 0.00 in /  0 mm 0 W/m2
01:03 41.5 °F /  5.3 °C 38.3 °F /  3.5 °C 30.47 in /  1031.7 hPa Calm   4.0 mph /  6.4 km/h 88 % 0.00 in /  0 mm 0 W/m2
01:08 41.4 °F /  5.2 °C 38.1 °F /  3.4 °C 30.46 in /  1031.4 hPa Calm   1.0 mph /  1.6 km/h 88 % 0.00 in /  0 mm 0 W/m2
01:13 41.4 °F /  5.2 °C 38.1 °F /  3.4 °C 30.46 in /  1031.4 hPa Calm   1.0 mph /  1.6 km/h 88 % 0.00 in /  0 mm 0 W/m2
01:18 41.2 °F /  5.1 °C 37.9 °F /  3.3 °C 30.47 in /  1031.7 hPa Calm     88 % 0.00 in /  0 mm 0 W/m2
01:23 41.0 °F /  5 °C 37.7 °F /  3.2 °C 30.47 in /  1031.7 hPa Calm   1.0 mph /  1.6 km/h 88 % 0.00 in /  0 mm 0 W/m2
01:28 40.8 °F /  4.9 °C 37.8 °F /  3.2 °C 30.46 in /  1031.4 hPa Calm   1.0 mph /  1.6 km/h 89 % 0.00 in /  0 mm 0 W/m2
01:33 40.8 °F /  4.9 °C 37.8 °F /  3.2 °C 30.46 in /  1031.4 hPa Calm   1.0 mph /  1.6 km/h 89 % 0.00 in /  0 mm 0 W/m2
01:38 40.6 °F /  4.8 °C 37.7 °F /  3.2 °C 30.46 in /  1031.4 hPa Calm   1.0 mph /  1.6 km/h 89 % 0.00 in /  0 mm 0 W/m2
01:43 40.5 °F /  4.7 °C 37.5 °F /  3.1 °C 30.46 in /  1031.4 hPa Calm     89 % 0.00 in /  0 mm 0 W/m2
01:48 40.3 °F /  4.6 °C 37.3 °F /  2.9 °C 30.46 in /  1031.4 hPa Calm     89 % 0.00 in /  0 mm 0 W/m2
01:53 40.3 °F /  4.6 °C 37.6 °F /  3.1 °C 30.46 in /  1031.4 hPa Calm     90 % 0.00 in /  0 mm 0 W/m2
01:58 40.1 °F /  4.5 °C 37.4 °F /  3 °C 30.46 in /  1031.4 hPa Calm     90 % 0.00 in /  0 mm 0 W/m2
02:03 39.9 °F /  4.4 °C 37.2 °F /  2.9 °C 30.46 in /  1031.4 hPa Calm     90 % 0.00 in /  0 mm 0 W/m2
02:08 39.9 °F /  4.4 °C 37.2 °F /  2.9 °C 30.46 in /  1031.4 hPa Calm     90 % 0.00 in /  0 mm 0 W/m2
02:09 39.7 °F /  4.3 °C 37.0 °F /  2.8 °C 30.46 in /  1031.4 hPa Calm     90 % 0.00 in /  0 mm 0 W/m2
02:14 39.9 °F /  4.4 °C 37.5 °F /  3.1 °C 30.46 in /  1031.4 hPa Calm     91 % 0.00 in /  0 mm 0 W/m2
02:19 39.9 °F /  4.4 °C 37.5 °F /  3.1 °C 30.46 in /  1031.4 hPa Calm     91 % 0.00 in /  0 mm 0 W/m2
02:24 39.9 °F /  4.4 °C 37.5 °F /  3.1 °C 30.45 in /  1031 hPa Calm     91 % 0.00 in /  0 mm 0 W/m2
02:29 39.7 °F /  4.3 °C 37.3 °F /  2.9 °C 30.45 in /  1031 hPa Calm     91 % 0.00 in /  0 mm 0 W/m2
02:34 39.9 °F /  4.4 °C 37.5 °F /  3.1 °C 30.45 in /  1031 hPa Calm     91 % 0.00 in /  0 mm 0 W/m2
02:39 39.7 °F /  4.3 °C 37.3 °F /  2.9 °C 30.45 in /  1031 hPa Calm     91 % 0.00 in /  0 mm 0 W/m2
02:44 39.6 °F /  4.2 °C 37.2 °F /  2.9 °C 30.45 in /  1031 hPa Calm   1.0 mph /  1.6 km/h 91 % 0.00 in /  0 mm 0 W/m2
02:49 39.6 °F /  4.2 °C 37.2 °F /  2.9 °C 30.45 in /  1031 hPa Calm   1.0 mph /  1.6 km/h 91 % 0.00 in /  0 mm 0 W/m2
02:54 39.4 °F /  4.1 °C 37.0 °F /  2.8 °C 30.45 in /  1031 hPa Calm     91 % 0.00 in /  0 mm 0 W/m2
02:59 39.2 °F /  4 °C 36.8 °F /  2.7 °C 30.45 in /  1031 hPa Calm     91 % 0.00 in /  0 mm 0 W/m2
03:04 39.2 °F /  4 °C 36.8 °F /  2.7 °C 30.45 in /  1031 hPa Calm   1.0 mph /  1.6 km/h 91 % 0.00 in /  0 mm 0 W/m2
03:09 39.0 °F /  3.9 °C 36.6 °F /  2.6 °C 30.45 in /  1031 hPa Calm   1.0 mph /  1.6 km/h 91 % 0.00 in /  0 mm 0 W/m2
03:14 39.0 °F /  3.9 °C 36.9 °F /  2.7 °C 30.45 in /  1031 hPa Calm   1.0 mph /  1.6 km/h 92 % 0.00 in /  0 mm 0 W/m2
03:19 38.8 °F /  3.8 °C 36.4 °F /  2.4 °C 30.45 in /  1031 hPa Calm   1.0 mph /  1.6 km/h 91 % 0.00 in /  0 mm 0 W/m2
03:24 38.8 °F /  3.8 °C 36.7 °F /  2.6 °C 30.45 in /  1031 hPa Calm     92 % 0.00 in /  0 mm 0 W/m2
03:29 38.7 °F /  3.7 °C 36.3 °F /  2.4 °C 30.45 in /  1031 hPa Calm     91 % 0.00 in /  0 mm 0 W/m2
03:34 38.7 °F /  3.7 °C 36.5 °F /  2.5 °C 30.45 in /  1031 hPa Calm     92 % 0.00 in /  0 mm 0 W/m2
03:39 38.7 °F /  3.7 °C 36.5 °F /  2.5 °C 30.45 in /  1031 hPa Calm     92 % 0.00 in /  0 mm 0 W/m2
03:45 38.5 °F /  3.6 °C 36.4 °F /  2.4 °C 30.45 in /  1031 hPa Calm     92 % 0.00 in /  0 mm 0 W/m2
03:50 38.3 °F /  3.5 °C 36.2 °F /  2.3 °C 30.45 in /  1031 hPa Calm     92 % 0.00 in /  0 mm 0 W/m2
03:55 38.3 °F /  3.5 °C 36.2 °F /  2.3 °C 30.45 in /  1031 hPa Calm     92 % 0.00 in /  0 mm 0 W/m2
04:00 38.1 °F /  3.4 °C 36.0 °F /  2.2 °C 30.45 in /  1031 hPa Calm     92 % 0.00 in /  0 mm 0 W/m2
04:05 38.1 °F /  3.4 °C 36.0 °F /  2.2 °C 30.45 in /  1031 hPa Calm     92 % 0.00 in /  0 mm 0 W/m2
04:10 37.9 °F /  3.3 °C 35.8 °F /  2.1 °C 30.44 in /  1030.7 hPa Calm     92 % 0.00 in /  0 mm 0 W/m2
04:15 37.9 °F /  3.3 °C 35.8 °F /  2.1 °C 30.44 in /  1030.7 hPa Calm     92 % 0.00 in /  0 mm 0 W/m2
04:20 37.9 °F /  3.3 °C 36.1 °F /  2.3 °C 30.44 in /  1030.7 hPa Calm   1.0 mph /  1.6 km/h 93 % 0.00 in /  0 mm 0 W/m2
04:25 38.1 °F /  3.4 °C 36.3 °F /  2.4 °C 30.44 in /  1030.7 hPa Calm   2.0 mph /  3.2 km/h 93 % 0.00 in /  0 mm 0 W/m2
04:30 38.5 °F /  3.6 °C 36.6 °F /  2.6 °C 30.44 in /  1030.7 hPa Calm   2.0 mph /  3.2 km/h 93 % 0.00 in /  0 mm 0 W/m2
04:35 38.5 °F /  3.6 °C 36.6 °F /  2.6 °C 30.43 in /  1030.4 hPa Calm   1.0 mph /  1.6 km/h 93 % 0.00 in /  0 mm 0 W/m2
04:40 38.3 °F /  3.5 °C 36.5 °F /  2.5 °C 30.44 in /  1030.7 hPa Calm   1.0 mph /  1.6 km/h 93 % 0.00 in /  0 mm 0 W/m2
04:45 38.3 °F /  3.5 °C 36.5 °F /  2.5 °C 30.44 in /  1030.7 hPa Calm   1.0 mph /  1.6 km/h 93 % 0.00 in /  0 mm 0 W/m2
04:50 38.1 °F /  3.4 °C 36.3 °F /  2.4 °C 30.43 in /  1030.4 hPa Calm   1.0 mph /  1.6 km/h 93 % 0.00 in /  0 mm 0 W/m2
04:55 38.1 °F /  3.4 °C 36.3 °F /  2.4 °C 30.43 in /  1030.4 hPa Calm   1.0 mph /  1.6 km/h 93 % 0.00 in /  0 mm 0 W/m2
05:00 38.1 °F /  3.4 °C 36.3 °F /  2.4 °C 30.43 in /  1030.4 hPa Calm   2.0 mph /  3.2 km/h 93 % 0.00 in /  0 mm 0 W/m2
05:05 38.1 °F /  3.4 °C 36.3 °F /  2.4 °C 30.43 in /  1030.4 hPa Calm   2.0 mph /  3.2 km/h 93 % 0.00 in /  0 mm 0 W/m2
05:10 38.1 °F /  3.4 °C 36.3 °F /  2.4 °C 30.43 in /  1030.4 hPa Calm   1.0 mph /  1.6 km/h 93 % 0.00 in /  0 mm 0 W/m2
05:15 38.1 °F /  3.4 °C 36.3 °F /  2.4 °C 30.43 in /  1030.4 hPa Calm   1.0 mph /  1.6 km/h 93 % 0.00 in /  0 mm 0 W/m2
05:20 37.9 °F /  3.3 °C 36.1 °F /  2.3 °C 30.43 in /  1030.4 hPa Calm   1.0 mph /  1.6 km/h 93 % 0.00 in /  0 mm 0 W/m2
05:25 37.8 °F /  3.2 °C 35.9 °F /  2.2 °C 30.43 in /  1030.4 hPa Calm   1.0 mph /  1.6 km/h 93 % 0.00 in /  0 mm 0 W/m2
05:30 37.8 °F /  3.2 °C 35.9 °F /  2.2 °C 30.43 in /  1030.4 hPa Calm   1.0 mph /  1.6 km/h 93 % 0.00 in /  0 mm 0 W/m2
05:35 37.6 °F /  3.1 °C 35.7 °F /  2.1 °C 30.43 in /  1030.4 hPa Calm   1.0 mph /  1.6 km/h 93 % 0.00 in /  0 mm 0 W/m2
05:40 37.4 °F /  3 °C 35.6 °F /  2 °C 30.44 in /  1030.7 hPa Calm     93 % 0.00 in /  0 mm 0 W/m2
05:45 37.2 °F /  2.9 °C 35.4 °F /  1.9 °C 30.44 in /  1030.7 hPa Calm     93 % 0.00 in /  0 mm 0 W/m2
05:50 37.0 °F /  2.8 °C 35.2 °F /  1.8 °C 30.44 in /  1030.7 hPa Calm   2.0 mph /  3.2 km/h 93 % 0.00 in /  0 mm 0 W/m2
05:55 37.0 °F /  2.8 °C 35.2 °F /  1.8 °C 30.44 in /  1030.7 hPa Calm   2.0 mph /  3.2 km/h 93 % 0.00 in /  0 mm 0 W/m2
06:00 37.0 °F /  2.8 °C 35.2 °F /  1.8 °C 30.44 in /  1030.7 hPa Calm   2.0 mph /  3.2 km/h 93 % 0.00 in /  0 mm 0 W/m2
06:02 37.0 °F /  2.8 °C 35.2 °F /  1.8 °C 30.45 in /  1031 hPa Calm   2.0 mph /  3.2 km/h 93 % 0.00 in /  0 mm 0 W/m2
06:07 37.0 °F /  2.8 °C 35.2 °F /  1.8 °C 30.45 in /  1031 hPa Calm   2.0 mph /  3.2 km/h 93 % 0.00 in /  0 mm 0 W/m2
06:12 37.2 °F /  2.9 °C 35.7 °F /  2.1 °C 30.45 in /  1031 hPa Calm   1.0 mph /  1.6 km/h 94 % 0.00 in /  0 mm 0 W/m2
06:17 37.0 °F /  2.8 °C 35.2 °F /  1.8 °C 30.45 in /  1031 hPa Calm   2.0 mph /  3.2 km/h 93 % 0.00 in /  0 mm 0 W/m2
06:22 36.9 °F /  2.7 °C 35.0 °F /  1.7 °C 30.45 in /  1031 hPa Calm   2.0 mph /  3.2 km/h 93 % 0.00 in /  0 mm 0 W/m2
06:27 36.9 °F /  2.7 °C 35.0 °F /  1.7 °C 30.45 in /  1031 hPa Calm   1.0 mph /  1.6 km/h 93 % 0.00 in /  0 mm 5 W/m2
06:32 36.7 °F /  2.6 °C 34.8 °F /  1.6 °C 30.46 in /  1031.4 hPa Calm     93 % 0.00 in /  0 mm 7 W/m2
06:37 36.5 °F /  2.5 °C 34.7 °F /  1.5 °C 30.46 in /  1031.4 hPa Calm     93 % 0.00 in /  0 mm 11 W/m2
06:38 36.5 °F /  2.5 °C 34.7 °F /  1.5 °C 30.46 in /  1031.4 hPa Calm     93 % 0.00 in /  0 mm 11 W/m2
06:43 36.3 °F /  2.4 °C 34.5 °F /  1.4 °C 30.46 in /  1031.4 hPa Calm     93 % 0.00 in /  0 mm 12 W/m2
06:48 36.3 °F /  2.4 °C 34.5 °F /  1.4 °C 30.46 in /  1031.4 hPa Calm     93 % 0.00 in /  0 mm 16 W/m2
06:53 36.1 °F /  2.3 °C 34.3 °F /  1.3 °C 30.46 in /  1031.4 hPa Calm     93 % 0.00 in /  0 mm 18 W/m2
06:58 36.3 °F /  2.4 °C 34.8 °F /  1.6 °C 30.46 in /  1031.4 hPa Calm     94 % 0.00 in /  0 mm 21 W/m2
07:03 36.3 °F /  2.4 °C 34.8 °F /  1.6 °C 30.46 in /  1031.4 hPa Calm     94 % 0.00 in /  0 mm 30 W/m2
07:08 36.3 °F /  2.4 °C 34.8 °F /  1.6 °C 30.46 in /  1031.4 hPa Calm     94 % 0.00 in /  0 mm 26 W/m2
07:09 36.3 °F /  2.4 °C 34.8 °F /  1.6 °C 30.46 in /  1031.4 hPa Calm     94 % 0.00 in /  0 mm 26 W/m2
07:14 36.5 °F /  2.5 °C 34.9 °F /  1.6 °C 30.46 in /  1031.4 hPa Calm     94 % 0.00 in /  0 mm 30 W/m2
07:19 36.5 °F /  2.5 °C 34.9 °F /  1.6 °C 30.46 in /  1031.4 hPa Calm     94 % 0.00 in /  0 mm 35 W/m2
07:24 36.7 °F /  2.6 °C 35.1 °F /  1.7 °C 30.46 in /  1031.4 hPa Calm     94 % 0.00 in /  0 mm 39 W/m2
07:29 36.9 °F /  2.7 °C 35.3 °F /  1.8 °C 30.46 in /  1031.4 hPa Calm     94 % 0.00 in /  0 mm 46 W/m2
07:34 37.0 °F /  2.8 °C 35.5 °F /  1.9 °C 30.46 in /  1031.4 hPa Calm     94 % 0.00 in /  0 mm 40 W/m2
07:39 37.2 °F /  2.9 °C 35.9 °F /  2.2 °C 30.46 in /  1031.4 hPa Calm     95 % 0.00 in /  0 mm 40 W/m2
07:44 37.6 °F /  3.1 °C 36.3 °F /  2.4 °C 30.46 in /  1031.4 hPa Calm     95 % 0.00 in /  0 mm 42 W/m2
07:49 37.9 °F /  3.3 °C 36.6 °F /  2.6 °C 30.46 in /  1031.4 hPa Calm     95 % 0.00 in /  0 mm 40 W/m2
07:54 38.1 °F /  3.4 °C 36.8 °F /  2.7 °C 30.46 in /  1031.4 hPa Calm     95 % 0.00 in /  0 mm 44 W/m2
07:59 38.7 °F /  3.7 °C 37.4 °F /  3 °C 30.46 in /  1031.4 hPa Calm     95 % 0.00 in /  0 mm 49 W/m2
08:04 39.0 °F /  3.9 °C 38.0 °F /  3.3 °C 30.46 in /  1031.4 hPa Calm   1.0 mph /  1.6 km/h 96 % 0.00 in /  0 mm 185 W/m2
08:09 40.3 °F /  4.6 °C 39.2 °F /  4 °C 30.46 in /  1031.4 hPa Calm   3.0 mph /  4.8 km/h 96 % 0.00 in /  0 mm 200 W/m2
08:14 41.4 °F /  5.2 °C 40.6 °F /  4.8 °C 30.45 in /  1031 hPa West 1.0 mph /  1.6 km/h 3.0 mph /  4.8 km/h 97 % 0.00 in /  0 mm 216 W/m2
08:19 42.4 °F /  5.8 °C 41.4 °F /  5.2 °C 30.45 in /  1031 hPa West 1.0 mph /  1.6 km/h 3.0 mph /  4.8 km/h 96 % 0.00 in /  0 mm 230 W/m2
08:24 43.3 °F /  6.3 °C 42.3 °F /  5.7 °C 30.45 in /  1031 hPa West 1.0 mph /  1.6 km/h 5.0 mph /  8 km/h 96 % 0.00 in /  0 mm 241 W/m2
08:29 44.2 °F /  6.8 °C 42.9 °F /  6.1 °C 30.45 in /  1031 hPa West 2.0 mph /  3.2 km/h 5.0 mph /  8 km/h 95 % 0.00 in /  0 mm 257 W/m2
08:34 45.0 °F /  7.2 °C 43.3 °F /  6.3 °C 30.45 in /  1031 hPa West 3.0 mph /  4.8 km/h 6.0 mph /  9.7 km/h 94 % 0.00 in /  0 mm 272 W/m2
08:39 45.9 °F /  7.7 °C 43.4 °F /  6.3 °C 30.45 in /  1031 hPa West 3.0 mph /  4.8 km/h 7.0 mph /  11.3 km/h 91 % 0.00 in /  0 mm 285 W/m2
08:44 46.8 °F /  8.2 °C 43.4 °F /  6.3 °C 30.45 in /  1031 hPa West 4.0 mph /  6.4 km/h 10.0 mph /  16.1 km/h 88 % 0.00 in /  0 mm 294 W/m2
08:49 47.5 °F /  8.6 °C 43.5 °F /  6.4 °C 30.45 in /  1031 hPa West 6.0 mph /  9.7 km/h 11.0 mph /  17.7 km/h 86 % 0.00 in /  0 mm 311 W/m2
08:54 47.8 °F /  8.8 °C 42.9 °F /  6.1 °C 30.45 in /  1031 hPa West 7.0 mph /  11.3 km/h 12.0 mph /  19.3 km/h 83 % 0.00 in /  0 mm 327 W/m2
09:00 48.0 °F /  8.9 °C 42.8 °F /  6 °C 30.45 in /  1031 hPa West 6.0 mph /  9.7 km/h 12.0 mph /  19.3 km/h 82 % 0.00 in /  0 mm 339 W/m2
09:05 48.6 °F /  9.2 °C 43.0 °F /  6.1 °C 30.45 in /  1031 hPa West 5.0 mph /  8 km/h 10.0 mph /  16.1 km/h 81 % 0.00 in /  0 mm 353 W/m2
09:10 48.7 °F /  9.3 °C 42.5 °F /  5.8 °C 30.45 in /  1031 hPa WNW 6.0 mph /  9.7 km/h 12.0 mph /  19.3 km/h 79 % 0.00 in /  0 mm 367 W/m2
09:15 48.7 °F /  9.3 °C 42.5 °F /  5.8 °C 30.45 in /  1031 hPa WNW 7.0 mph /  11.3 km/h 12.0 mph /  19.3 km/h 79 % 0.00 in /  0 mm 387 W/m2
09:20 49.1 °F /  9.5 °C 42.9 °F /  6.1 °C 30.45 in /  1031 hPa WNW 5.0 mph /  8 km/h 11.0 mph /  17.7 km/h 79 % 0.00 in /  0 mm 397 W/m2
09:25 49.5 °F /  9.7 °C 42.9 °F /  6.1 °C 30.46 in /  1031.4 hPa WNW 5.0 mph /  8 km/h 11.0 mph /  17.7 km/h 78 % 0.00 in /  0 mm 406 W/m2
09:30 49.8 °F /  9.9 °C 42.9 °F /  6.1 °C 30.46 in /  1031.4 hPa WNW 7.0 mph /  11.3 km/h 13.0 mph /  20.9 km/h 77 % 0.00 in /  0 mm 422 W/m2
09:35 50.0 °F /  10 °C 43.1 °F /  6.2 °C 30.45 in /  1031 hPa West 6.0 mph /  9.7 km/h 13.0 mph /  20.9 km/h 77 % 0.00 in /  0 mm 436 W/m2
09:40 49.6 °F /  9.8 °C 42.7 °F /  5.9 °C 30.46 in /  1031.4 hPa West 7.0 mph /  11.3 km/h 14.0 mph /  22.5 km/h 77 % 0.00 in /  0 mm 448 W/m2
09:45 49.6 °F /  9.8 °C 42.7 °F /  5.9 °C 30.45 in /  1031 hPa West 8.0 mph /  12.9 km/h 14.0 mph /  22.5 km/h 77 % 0.00 in /  0 mm 466 W/m2
09:50 49.3 °F /  9.6 °C 42.4 °F /  5.8 °C 30.45 in /  1031 hPa West 9.0 mph /  14.5 km/h 14.0 mph /  22.5 km/h 77 % 0.00 in /  0 mm 475 W/m2
09:55 49.3 °F /  9.6 °C 42.7 °F /  5.9 °C 30.46 in /  1031.4 hPa West 9.0 mph /  14.5 km/h 14.0 mph /  22.5 km/h 78 % 0.00 in /  0 mm 483 W/m2
10:00 49.3 °F /  9.6 °C 42.7 °F /  5.9 °C 30.45 in /  1031 hPa West 9.0 mph /  14.5 km/h 14.0 mph /  22.5 km/h 78 % 0.00 in /  0 mm 501 W/m2
10:05 49.3 °F /  9.6 °C 42.7 °F /  5.9 °C 30.45 in /  1031 hPa West 10.0 mph /  16.1 km/h 14.0 mph /  22.5 km/h 78 % 0.00 in /  0 mm 506 W/m2
10:10 49.3 °F /  9.6 °C 42.4 °F /  5.8 °C 30.45 in /  1031 hPa West 10.0 mph /  16.1 km/h 18.0 mph /  29 km/h 77 % 0.00 in /  0 mm 526 W/m2
10:15 49.5 °F /  9.7 °C 42.9 °F /  6.1 °C 30.45 in /  1031 hPa West 10.0 mph /  16.1 km/h 18.0 mph /  29 km/h 78 % 0.00 in /  0 mm 547 W/m2
10:20 49.8 °F /  9.9 °C 43.2 °F /  6.2 °C 30.45 in /  1031 hPa West 9.0 mph /  14.5 km/h 14.0 mph /  22.5 km/h 78 % 0.00 in /  0 mm 608 W/m2
10:25 50.2 °F /  10.1 °C 43.2 °F /  6.2 °C 30.45 in /  1031 hPa WSW 9.0 mph /  14.5 km/h 14.0 mph /  22.5 km/h 77 % 0.00 in /  0 mm 462 W/m2
10:30 50.2 °F /  10.1 °C 43.2 °F /  6.2 °C 30.45 in /  1031 hPa WSW 9.0 mph /  14.5 km/h 13.0 mph /  20.9 km/h 77 % 0.00 in /  0 mm 229 W/m2
10:35 50.5 °F /  10.3 °C 43.6 °F /  6.4 °C 30.46 in /  1031.4 hPa West 8.0 mph /  12.9 km/h 13.0 mph /  20.9 km/h 77 % 0.00 in /  0 mm 239 W/m2
10:40 50.9 °F /  10.5 °C 43.3 °F /  6.3 °C 30.46 in /  1031.4 hPa WNW 9.0 mph /  14.5 km/h 18.0 mph /  29 km/h 75 % 0.00 in /  0 mm 227 W/m2
10:45 50.9 °F /  10.5 °C 42.9 °F /  6.1 °C 30.46 in /  1031.4 hPa WNW 9.0 mph /  14.5 km/h 18.0 mph /  29 km/h 74 % 0.00 in /  0 mm 684 W/m2
10:50 51.3 °F /  10.7 °C 43.3 °F /  6.3 °C 30.45 in /  1031 hPa WNW 10.0 mph /  16.1 km/h 18.0 mph /  29 km/h 74 % 0.00 in /  0 mm 250 W/m2
10:55 50.9 °F /  10.5 °C 42.6 °F /  5.9 °C 30.45 in /  1031 hPa WNW 11.0 mph /  17.7 km/h 18.0 mph /  29 km/h 73 % 0.00 in /  0 mm 332 W/m2
11:00 51.1 °F /  10.6 °C 43.1 °F /  6.2 °C 30.45 in /  1031 hPa WNW 10.0 mph /  16.1 km/h 18.0 mph /  29 km/h 74 % 0.00 in /  0 mm 373 W/m2
11:05 51.1 °F /  10.6 °C 42.7 °F /  5.9 °C 30.45 in /  1031 hPa WNW 10.0 mph /  16.1 km/h 16.0 mph /  25.7 km/h 73 % 0.00 in /  0 mm 209 W/m2
11:10 51.1 °F /  10.6 °C 42.7 °F /  5.9 °C 30.45 in /  1031 hPa WNW 10.0 mph /  16.1 km/h 19.0 mph /  30.6 km/h 73 % 0.00 in /  0 mm 714 W/m2
11:15 51.1 °F /  10.6 °C 42.7 °F /  5.9 °C 30.45 in /  1031 hPa WNW 10.0 mph /  16.1 km/h 19.0 mph /  30.6 km/h 73 % 0.00 in /  0 mm 773 W/m2
11:20 51.3 °F /  10.7 °C 43.3 °F /  6.3 °C 30.45 in /  1031 hPa West 10.0 mph /  16.1 km/h 15.0 mph /  24.1 km/h 74 % 0.00 in /  0 mm 680 W/m2
11:25 52.0 °F /  11.1 °C 43.6 °F /  6.4 °C 30.45 in /  1031 hPa West 10.0 mph /  16.1 km/h 16.0 mph /  25.7 km/h 73 % 0.00 in /  0 mm 680 W/m2
11:30 52.5 °F /  11.4 °C 43.8 °F /  6.6 °C 30.45 in /  1031 hPa West 10.0 mph /  16.1 km/h 18.0 mph /  29 km/h 72 % 0.00 in /  0 mm 800 W/m2
11:35 53.1 °F /  11.7 °C 44.3 °F /  6.8 °C 30.45 in /  1031 hPa West 10.0 mph /  16.1 km/h 19.0 mph /  30.6 km/h 72 % 0.00 in /  0 mm 919 W/m2
11:40 53.1 °F /  11.7 °C 43.5 °F /  6.4 °C 30.45 in /  1031 hPa WNW 10.0 mph /  16.1 km/h 19.0 mph /  30.6 km/h 70 % 0.00 in /  0 mm 369 W/m2
11:45 52.9 °F /  11.6 °C 43.4 °F /  6.3 °C 30.45 in /  1031 hPa WNW 10.0 mph /  16.1 km/h 19.0 mph /  30.6 km/h 70 % 0.00 in /  0 mm 290 W/m2
11:50 52.5 °F /  11.4 °C 43.0 °F /  6.1 °C 30.45 in /  1031 hPa WNW 10.0 mph /  16.1 km/h 19.0 mph /  30.6 km/h 70 % 0.00 in /  0 mm 318 W/m2
11:55 52.3 °F /  11.3 °C 43.2 °F /  6.2 °C 30.45 in /  1031 hPa WNW 8.0 mph /  12.9 km/h 14.0 mph /  22.5 km/h 71 % 0.00 in /  0 mm 403 W/m2
12:00 52.5 °F /  11.4 °C 43.0 °F /  6.1 °C 30.44 in /  1030.7 hPa NW 9.0 mph /  14.5 km/h 18.0 mph /  29 km/h 70 % 0.00 in /  0 mm 329 W/m2
12:02 52.5 °F /  11.4 °C 43.0 °F /  6.1 °C 30.45 in /  1031 hPa WNW 9.0 mph /  14.5 km/h 18.0 mph /  29 km/h 70 % 0.00 in /  0 mm 302 W/m2
12:07 52.3 °F /  11.3 °C 42.8 °F /  6 °C 30.45 in /  1031 hPa WNW 10.0 mph /  16.1 km/h 18.0 mph /  29 km/h 70 % 0.00 in /  0 mm 367 W/m2
12:12 52.7 °F /  11.5 °C 43.2 °F /  6.2 °C 30.45 in /  1031 hPa WNW 9.0 mph /  14.5 km/h 18.0 mph /  29 km/h 70 % 0.00 in /  0 mm 501 W/m2
12:17 52.9 °F /  11.6 °C 43.0 °F /  6.1 °C 30.44 in /  1030.7 hPa West 10.0 mph /  16.1 km/h 18.0 mph /  29 km/h 69 % 0.00 in /  0 mm 308 W/m2
12:22 52.7 °F /  11.5 °C 43.2 °F /  6.2 °C 30.44 in /  1030.7 hPa West 11.0 mph /  17.7 km/h 19.0 mph /  30.6 km/h 70 % 0.00 in /  0 mm 492 W/m2
12:27 52.9 °F /  11.6 °C 43.4 °F /  6.3 °C 30.44 in /  1030.7 hPa West 11.0 mph /  17.7 km/h 19.0 mph /  30.6 km/h 70 % 0.00 in /  0 mm 287 W/m2
12:32 53.1 °F /  11.7 °C 43.2 °F /  6.2 °C 30.44 in /  1030.7 hPa WNW 10.0 mph /  16.1 km/h 18.0 mph /  29 km/h 69 % 0.00 in /  0 mm 265 W/m2
12:37 53.1 °F /  11.7 °C 42.8 °F /  6 °C 30.44 in /  1030.7 hPa WNW 10.0 mph /  16.1 km/h 18.0 mph /  29 km/h 68 % 0.00 in /  0 mm 309 W/m2
12:42 53.2 °F /  11.8 °C 43.3 °F /  6.3 °C 30.44 in /  1030.7 hPa West 11.0 mph /  17.7 km/h 15.0 mph /  24.1 km/h 69 % 0.00 in /  0 mm 330 W/m2
12:47 53.4 °F /  11.9 °C 43.5 °F /  6.4 °C 30.44 in /  1030.7 hPa WNW 10.0 mph /  16.1 km/h 14.0 mph /  22.5 km/h 69 % 0.00 in /  0 mm 359 W/m2
12:52 53.4 °F /  11.9 °C 43.1 °F /  6.2 °C 30.44 in /  1030.7 hPa WNW 9.0 mph /  14.5 km/h 16.0 mph /  25.7 km/h 68 % 0.00 in /  0 mm 338 W/m2
12:57 53.4 °F /  11.9 °C 43.1 °F /  6.2 °C 30.44 in /  1030.7 hPa WNW 10.0 mph /  16.1 km/h 16.0 mph /  25.7 km/h 68 % 0.00 in /  0 mm 392 W/m2
13:02 53.8 °F /  12.1 °C 43.5 °F /  6.4 °C 30.43 in /  1030.4 hPa West 11.0 mph /  17.7 km/h 21.0 mph /  33.8 km/h 68 % 0.00 in /  0 mm 513 W/m2
13:07 54.3 °F /  12.4 °C 44.0 °F /  6.7 °C 30.43 in /  1030.4 hPa West 12.0 mph /  19.3 km/h 21.0 mph /  33.8 km/h 68 % 0.00 in /  0 mm 577 W/m2
13:08 54.5 °F /  12.5 °C 43.8 °F /  6.6 °C 30.43 in /  1030.4 hPa West 11.0 mph /  17.7 km/h 21.0 mph /  33.8 km/h 67 % 0.00 in /  0 mm 577 W/m2
13:13 54.9 °F /  12.7 °C 44.1 °F /  6.7 °C 30.43 in /  1030.4 hPa WNW 10.0 mph /  16.1 km/h 19.0 mph /  30.6 km/h 67 % 0.00 in /  0 mm 364 W/m2
13:18 54.9 °F /  12.7 °C 44.1 °F /  6.7 °C 30.43 in /  1030.4 hPa NW 9.0 mph /  14.5 km/h 15.0 mph /  24.1 km/h 67 % 0.00 in /  0 mm 374 W/m2
13:23 54.9 °F /  12.7 °C 43.7 °F /  6.5 °C 30.43 in /  1030.4 hPa WNW 9.0 mph /  14.5 km/h 15.0 mph /  24.1 km/h 66 % 0.00 in /  0 mm 401 W/m2
13:28 54.7 °F /  12.6 °C 43.5 °F /  6.4 °C 30.43 in /  1030.4 hPa WNW 10.0 mph /  16.1 km/h 18.0 mph /  29 km/h 66 % 0.00 in /  0 mm 334 W/m2
13:33 54.5 °F /  12.5 °C 43.8 °F /  6.6 °C 30.42 in /  1030 hPa WNW 11.0 mph /  17.7 km/h 18.0 mph /  29 km/h 67 % 0.00 in /  0 mm 726 W/m2
13:38 54.9 °F /  12.7 °C 43.7 °F /  6.5 °C 30.42 in /  1030 hPa WNW 11.0 mph /  17.7 km/h 16.0 mph /  25.7 km/h 66 % 0.00 in /  0 mm 394 W/m2
13:43 54.5 °F /  12.5 °C 43.0 °F /  6.1 °C 30.42 in /  1030 hPa WNW 11.0 mph /  17.7 km/h 22.0 mph /  35.4 km/h 65 % 0.00 in /  0 mm 381 W/m2
13:48 54.3 °F /  12.4 °C 43.2 °F /  6.2 °C 30.42 in /  1030 hPa WNW 12.0 mph /  19.3 km/h 22.0 mph /  35.4 km/h 66 % 0.00 in /  0 mm 381 W/m2
13:54 54.3 °F /  12.4 °C 43.2 °F /  6.2 °C 30.42 in /  1030 hPa WNW 11.0 mph /  17.7 km/h 22.0 mph /  35.4 km/h 66 % 0.00 in /  0 mm 292 W/m2
13:59 54.3 °F /  12.4 °C 42.8 °F /  6 °C 30.42 in /  1030 hPa WNW 12.0 mph /  19.3 km/h 22.0 mph /  35.4 km/h 65 % 0.00 in /  0 mm 431 W/m2
14:04 54.3 °F /  12.4 °C 42.8 °F /  6 °C 30.41 in /  1029.7 hPa West 12.0 mph /  19.3 km/h 19.0 mph /  30.6 km/h 65 % 0.00 in /  0 mm 264 W/m2
14:09 54.1 °F /  12.3 °C 43.4 °F /  6.3 °C 30.41 in /  1029.7 hPa West 11.0 mph /  17.7 km/h 19.0 mph /  30.6 km/h 67 % 0.00 in /  0 mm 388 W/m2
14:14 54.1 °F /  12.3 °C 43.4 °F /  6.3 °C 30.41 in /  1029.7 hPa WNW 10.0 mph /  16.1 km/h 19.0 mph /  30.6 km/h 67 % 0.00 in /  0 mm 265 W/m2
14:19 54.0 °F /  12.2 °C 43.2 °F /  6.2 °C 30.41 in /  1029.7 hPa WNW 10.0 mph /  16.1 km/h 19.0 mph /  30.6 km/h 67 % 0.00 in /  0 mm 290 W/m2
14:24 53.8 °F /  12.1 °C 43.5 °F /  6.4 °C 30.41 in /  1029.7 hPa WNW 10.0 mph /  16.1 km/h 21.0 mph /  33.8 km/h 68 % 0.00 in /  0 mm 264 W/m2
14:29 53.4 °F /  11.9 °C 43.1 °F /  6.2 °C 30.41 in /  1029.7 hPa WNW 11.0 mph /  17.7 km/h 21.0 mph /  33.8 km/h 68 % 0.00 in /  0 mm 294 W/m2
14:34 53.4 °F /  11.9 °C 43.1 °F /  6.2 °C 30.41 in /  1029.7 hPa WNW 11.0 mph /  17.7 km/h 20.0 mph /  32.2 km/h 68 % 0.00 in /  0 mm 294 W/m2
14:39 53.4 °F /  11.9 °C 43.1 °F /  6.2 °C 30.41 in /  1029.7 hPa WNW 10.0 mph /  16.1 km/h 16.0 mph /  25.7 km/h 68 % 0.00 in /  0 mm 346 W/m2
14:44 53.8 °F /  12.1 °C 43.5 °F /  6.4 °C 30.41 in /  1029.7 hPa WNW 9.0 mph /  14.5 km/h 19.0 mph /  30.6 km/h 68 % 0.00 in /  0 mm 274 W/m2
14:49 53.8 °F /  12.1 °C 43.5 °F /  6.4 °C 30.41 in /  1029.7 hPa WNW 10.0 mph /  16.1 km/h 19.0 mph /  30.6 km/h 68 % 0.00 in /  0 mm 285 W/m2
14:54 53.4 °F /  11.9 °C 42.7 °F /  5.9 °C 30.41 in /  1029.7 hPa WNW 10.0 mph /  16.1 km/h 18.0 mph /  29 km/h 67 % 0.00 in /  0 mm 207 W/m2
14:59 53.2 °F /  11.8 °C 42.6 °F /  5.9 °C 30.41 in /  1029.7 hPa WNW 10.0 mph /  16.1 km/h 19.0 mph /  30.6 km/h 67 % 0.00 in /  0 mm 230 W/m2
15:04 53.2 °F /  11.8 °C 42.9 °F /  6.1 °C 30.40 in /  1029.3 hPa WNW 9.0 mph /  14.5 km/h 19.0 mph /  30.6 km/h 68 % 0.00 in /  0 mm 301 W/m2
15:09 53.6 °F /  12 °C 43.3 °F /  6.3 °C 30.40 in /  1029.3 hPa WNW 8.0 mph /  12.9 km/h 14.0 mph /  22.5 km/h 68 % 0.00 in /  0 mm 253 W/m2
15:14 53.6 °F /  12 °C 42.9 °F /  6.1 °C 30.40 in /  1029.3 hPa WNW 9.0 mph /  14.5 km/h 15.0 mph /  24.1 km/h 67 % 0.00 in /  0 mm 232 W/m2
15:19 53.4 °F /  11.9 °C 42.7 °F /  5.9 °C 30.40 in /  1029.3 hPa WNW 11.0 mph /  17.7 km/h 19.0 mph /  30.6 km/h 67 % 0.00 in /  0 mm 248 W/m2
15:24 53.4 °F /  11.9 °C 42.7 °F /  5.9 °C 30.40 in /  1029.3 hPa WNW 11.0 mph /  17.7 km/h 19.0 mph /  30.6 km/h 67 % 0.00 in /  0 mm 232 W/m2
15:29 53.2 °F /  11.8 °C 42.6 °F /  5.9 °C 30.40 in /  1029.3 hPa WNW 10.0 mph /  16.1 km/h 18.0 mph /  29 km/h 67 % 0.00 in /  0 mm 218 W/m2
15:34 53.2 °F /  11.8 °C 42.9 °F /  6.1 °C 30.40 in /  1029.3 hPa WNW 9.0 mph /  14.5 km/h 18.0 mph /  29 km/h 68 % 0.00 in /  0 mm 301 W/m2
15:39 53.4 °F /  11.9 °C 42.7 °F /  5.9 °C 30.40 in /  1029.3 hPa WNW 10.0 mph /  16.1 km/h 18.0 mph /  29 km/h 67 % 0.00 in /  0 mm 691 W/m2
15:44 53.8 °F /  12.1 °C 43.1 °F /  6.2 °C 30.39 in /  1029 hPa West 11.0 mph /  17.7 km/h 19.0 mph /  30.6 km/h 67 % 0.00 in /  0 mm 642 W/m2
15:49 53.8 °F /  12.1 °C 42.7 °F /  5.9 °C 30.39 in /  1029 hPa WNW 12.0 mph /  19.3 km/h 21.0 mph /  33.8 km/h 66 % 0.00 in /  0 mm 232 W/m2
15:54 54.0 °F /  12.2 °C 42.9 °F /  6.1 °C 30.39 in /  1029 hPa WNW 11.0 mph /  17.7 km/h 21.0 mph /  33.8 km/h 66 % 0.00 in /  0 mm 555 W/m2
15:59 54.3 °F /  12.4 °C 43.2 °F /  6.2 °C 30.39 in /  1029 hPa WNW 11.0 mph /  17.7 km/h 21.0 mph /  33.8 km/h 66 % 0.00 in /  0 mm 592 W/m2
16:04 54.3 °F /  12.4 °C 42.8 °F /  6 °C 30.39 in /  1029 hPa West 12.0 mph /  19.3 km/h 21.0 mph /  33.8 km/h 65 % 0.00 in /  0 mm 202 W/m2
16:09 54.0 °F /  12.2 °C 42.9 °F /  6.1 °C 30.39 in /  1029 hPa WNW 13.0 mph /  20.9 km/h 22.0 mph /  35.4 km/h 66 % 0.00 in /  0 mm 279 W/m2
16:14 54.0 °F /  12.2 °C 42.9 °F /  6.1 °C 30.39 in /  1029 hPa West 14.0 mph /  22.5 km/h 23.0 mph /  37 km/h 66 % 0.00 in /  0 mm 561 W/m2
16:19 54.0 °F /  12.2 °C 42.9 °F /  6.1 °C 30.38 in /  1028.7 hPa West 13.0 mph /  20.9 km/h 23.0 mph /  37 km/h 66 % 0.00 in /  0 mm 573 W/m2
16:24 54.0 °F /  12.2 °C 42.9 °F /  6.1 °C 30.38 in /  1028.7 hPa West 11.0 mph /  17.7 km/h 20.0 mph /  32.2 km/h 66 % 0.00 in /  0 mm 183 W/m2
16:29 53.8 °F /  12.1 °C 42.3 °F /  5.7 °C 30.39 in /  1029 hPa WNW 12.0 mph /  19.3 km/h 22.0 mph /  35.4 km/h 65 % 0.00 in /  0 mm 325 W/m2
16:34 53.4 °F /  11.9 °C 42.3 °F /  5.7 °C 30.38 in /  1028.7 hPa WNW 13.0 mph /  20.9 km/h 22.0 mph /  35.4 km/h 66 % 0.00 in /  0 mm 552 W/m2
16:39 53.2 °F /  11.8 °C 42.2 °F /  5.7 °C 30.38 in /  1028.7 hPa West 14.0 mph /  22.5 km/h 24.0 mph /  38.6 km/h 66 % 0.00 in /  0 mm 197 W/m2
16:45 52.9 °F /  11.6 °C 42.2 °F /  5.7 °C 30.38 in /  1028.7 hPa WNW 13.0 mph /  20.9 km/h 24.0 mph /  38.6 km/h 67 % 0.00 in /  0 mm 232 W/m2
16:50 53.1 °F /  11.7 °C 42.8 °F /  6 °C 30.38 in /  1028.7 hPa WNW 11.0 mph /  17.7 km/h 23.0 mph /  37 km/h 68 % 0.00 in /  0 mm 427 W/m2
16:55 53.2 °F /  11.8 °C 42.6 °F /  5.9 °C 30.38 in /  1028.7 hPa WNW 11.0 mph /  17.7 km/h 20.0 mph /  32.2 km/h 67 % 0.00 in /  0 mm 213 W/m2
17:00 52.9 °F /  11.6 °C 42.2 °F /  5.7 °C 30.38 in /  1028.7 hPa WNW 12.0 mph /  19.3 km/h 20.0 mph /  32.2 km/h 67 % 0.00 in /  0 mm 438 W/m2
17:05 53.2 °F /  11.8 °C 42.6 °F /  5.9 °C 30.38 in /  1028.7 hPa WNW 12.0 mph /  19.3 km/h 19.0 mph /  30.6 km/h 67 % 0.00 in /  0 mm 533 W/m2
17:10 53.8 °F /  12.1 °C 43.1 °F /  6.2 °C 30.37 in /  1028.3 hPa WNW 10.0 mph /  16.1 km/h 19.0 mph /  30.6 km/h 67 % 0.00 in /  0 mm 515 W/m2
17:15 54.0 °F /  12.2 °C 42.9 °F /  6.1 °C 30.37 in /  1028.3 hPa WNW 11.0 mph /  17.7 km/h 19.0 mph /  30.6 km/h 66 % 0.00 in /  0 mm 429 W/m2
17:20 54.0 °F /  12.2 °C 42.9 °F /  6.1 °C 30.37 in /  1028.3 hPa WNW 12.0 mph /  19.3 km/h 20.0 mph /  32.2 km/h 66 % 0.00 in /  0 mm 387 W/m2
17:25 53.8 °F /  12.1 °C 42.7 °F /  5.9 °C 30.37 in /  1028.3 hPa WNW 11.0 mph /  17.7 km/h 20.0 mph /  32.2 km/h 66 % 0.00 in /  0 mm 371 W/m2
17:30 53.8 °F /  12.1 °C 42.7 °F /  5.9 °C 30.37 in /  1028.3 hPa WNW 11.0 mph /  17.7 km/h 20.0 mph /  32.2 km/h 66 % 0.00 in /  0 mm 366 W/m2
17:35 53.8 °F /  12.1 °C 42.7 °F /  5.9 °C 30.37 in /  1028.3 hPa WNW 11.0 mph /  17.7 km/h 19.0 mph /  30.6 km/h 66 % 0.00 in /  0 mm 323 W/m2
17:40 53.2 °F /  11.8 °C 41.8 °F /  5.4 °C 30.37 in /  1028.3 hPa WNW 12.0 mph /  19.3 km/h 21.0 mph /  33.8 km/h 65 % 0.00 in /  0 mm 221 W/m2
17:45 52.5 °F /  11.4 °C 41.9 °F /  5.5 °C 30.37 in /  1028.3 hPa WNW 13.0 mph /  20.9 km/h 21.0 mph /  33.8 km/h 67 % 0.00 in /  0 mm 197 W/m2
17:50 52.0 °F /  11.1 °C 41.7 °F /  5.4 °C 30.37 in /  1028.3 hPa WNW 12.0 mph /  19.3 km/h 21.0 mph /  33.8 km/h 68 % 0.00 in /  0 mm 292 W/m2
17:55 51.6 °F /  10.9 °C 41.4 °F /  5.2 °C 30.37 in /  1028.3 hPa WNW 11.0 mph /  17.7 km/h 18.0 mph /  29 km/h 68 % 0.00 in /  0 mm 132 W/m2
18:00 51.4 °F /  10.8 °C 41.6 °F /  5.3 °C 30.37 in /  1028.3 hPa NW 9.0 mph /  14.5 km/h 16.0 mph /  25.7 km/h 69 % 0.00 in /  0 mm 107 W/m2
18:05 51.1 °F /  10.6 °C 41.6 °F /  5.3 °C 30.37 in /  1028.3 hPa WNW 10.0 mph /  16.1 km/h 16.0 mph /  25.7 km/h 70 % 0.00 in /  0 mm 116 W/m2
18:10 50.9 °F /  10.5 °C 41.5 °F /  5.3 °C 30.37 in /  1028.3 hPa WNW 12.0 mph /  19.3 km/h 19.0 mph /  30.6 km/h 70 % 0.00 in /  0 mm 151 W/m2
18:15 51.1 °F /  10.6 °C 42.0 °F /  5.6 °C 30.37 in /  1028.3 hPa WNW 10.0 mph /  16.1 km/h 19.0 mph /  30.6 km/h 71 % 0.00 in /  0 mm 244 W/m2
18:20 51.3 °F /  10.7 °C 41.8 °F /  5.4 °C 30.37 in /  1028.3 hPa WNW 8.0 mph /  12.9 km/h 19.0 mph /  30.6 km/h 70 % 0.00 in /  0 mm 120 W/m2
18:25 51.1 °F /  10.6 °C 41.6 °F /  5.3 °C 30.37 in /  1028.3 hPa WNW 10.0 mph /  16.1 km/h 19.0 mph /  30.6 km/h 70 % 0.00 in /  0 mm 76 W/m2
18:30 50.5 °F /  10.3 °C 41.5 °F /  5.3 °C 30.36 in /  1028 hPa WNW 11.0 mph /  17.7 km/h 18.0 mph /  29 km/h 71 % 0.00 in /  0 mm 51 W/m2
18:35 50.2 °F /  10.1 °C 41.5 °F /  5.3 °C 30.36 in /  1028 hPa WNW 10.0 mph /  16.1 km/h 19.0 mph /  30.6 km/h 72 % 0.00 in /  0 mm 114 W/m2
18:40 50.0 °F /  10 °C 41.7 °F /  5.4 °C 30.36 in /  1028 hPa WNW 11.0 mph /  17.7 km/h 24.0 mph /  38.6 km/h 73 % 0.00 in /  0 mm 40 W/m2
18:45 49.6 °F /  9.8 °C 41.3 °F /  5.2 °C 30.36 in /  1028 hPa WNW 12.0 mph /  19.3 km/h 24.0 mph /  38.6 km/h 73 % 0.00 in /  0 mm 35 W/m2
18:50 49.5 °F /  9.7 °C 41.5 °F /  5.3 °C 30.37 in /  1028.3 hPa WNW 11.0 mph /  17.7 km/h 21.0 mph /  33.8 km/h 74 % 0.00 in /  0 mm 63 W/m2
18:55 49.5 °F /  9.7 °C 41.5 °F /  5.3 °C 30.37 in /  1028.3 hPa WNW 9.0 mph /  14.5 km/h 18.0 mph /  29 km/h 74 % 0.00 in /  0 mm 47 W/m2
19:00 49.3 °F /  9.6 °C 41.7 °F /  5.4 °C 30.36 in /  1028 hPa WNW 10.0 mph /  16.1 km/h 18.0 mph /  29 km/h 75 % 0.00 in /  0 mm 40 W/m2
19:05 49.3 °F /  9.6 °C 41.7 °F /  5.4 °C 30.37 in /  1028.3 hPa West 10.0 mph /  16.1 km/h 19.0 mph /  30.6 km/h 75 % 0.00 in /  0 mm 39 W/m2
19:10 49.1 °F /  9.5 °C 41.5 °F /  5.3 °C 30.37 in /  1028.3 hPa WNW 9.0 mph /  14.5 km/h 19.0 mph /  30.6 km/h 75 % 0.00 in /  0 mm 30 W/m2
19:15 48.9 °F /  9.4 °C 41.3 °F /  5.2 °C 30.36 in /  1028 hPa WNW 8.0 mph /  12.9 km/h 16.0 mph /  25.7 km/h 75 % 0.00 in /  0 mm 28 W/m2
19:20 48.7 °F /  9.3 °C 41.2 °F /  5.1 °C 30.36 in /  1028 hPa WNW 9.0 mph /  14.5 km/h 19.0 mph /  30.6 km/h 75 % 0.00 in /  0 mm 23 W/m2
19:25 48.6 °F /  9.2 °C 41.0 °F /  5 °C 30.37 in /  1028.3 hPa WNW 11.0 mph /  17.7 km/h 20.0 mph /  32.2 km/h 75 % 0.00 in /  0 mm 16 W/m2
19:30 48.6 °F /  9.2 °C 41.3 °F /  5.2 °C 30.37 in /  1028.3 hPa WNW 11.0 mph /  17.7 km/h 20.0 mph /  32.2 km/h 76 % 0.00 in /  0 mm 11 W/m2
19:35 48.6 °F /  9.2 °C 41.3 °F /  5.2 °C 30.37 in /  1028.3 hPa WNW 10.0 mph /  16.1 km/h 19.0 mph /  30.6 km/h 76 % 0.00 in /  0 mm 11 W/m2
19:40 48.4 °F /  9.1 °C 41.2 °F /  5.1 °C 30.37 in /  1028.3 hPa WNW 11.0 mph /  17.7 km/h 20.0 mph /  32.2 km/h 76 % 0.00 in /  0 mm 7 W/m2
19:46 48.4 °F /  9.1 °C 41.2 °F /  5.1 °C 30.37 in /  1028.3 hPa WNW 9.0 mph /  14.5 km/h 20.0 mph /  32.2 km/h 76 % 0.00 in /  0 mm 5 W/m2
19:51 48.4 °F /  9.1 °C 41.2 °F /  5.1 °C 30.37 in /  1028.3 hPa WNW 8.0 mph /  12.9 km/h 15.0 mph /  24.1 km/h 76 % 0.00 in /  0 mm 5 W/m2
19:56 48.2 °F /  9 °C 41.0 °F /  5 °C 30.37 in /  1028.3 hPa WNW 10.0 mph /  16.1 km/h 19.0 mph /  30.6 km/h 76 % 0.00 in /  0 mm 0 W/m2
20:01 48.2 °F /  9 °C 41.3 °F /  5.2 °C 30.37 in /  1028.3 hPa WNW 10.0 mph /  16.1 km/h 19.0 mph /  30.6 km/h 77 % 0.00 in /  0 mm 0 W/m2
20:06 48.2 °F /  9 °C 41.3 °F /  5.2 °C 30.37 in /  1028.3 hPa WNW 8.0 mph /  12.9 km/h 13.0 mph /  20.9 km/h 77 % 0.00 in /  0 mm 0 W/m2
20:11 48.4 °F /  9.1 °C 41.5 °F /  5.3 °C 30.38 in /  1028.7 hPa WNW 6.0 mph /  9.7 km/h 13.0 mph /  20.9 km/h 77 % 0.00 in /  0 mm 0 W/m2
20:16 48.2 °F /  9 °C 41.3 °F /  5.2 °C 30.38 in /  1028.7 hPa WNW 7.0 mph /  11.3 km/h 14.0 mph /  22.5 km/h 77 % 0.00 in /  0 mm 0 W/m2
20:21 48.0 °F /  8.9 °C 41.2 °F /  5.1 °C 30.38 in /  1028.7 hPa WNW 9.0 mph /  14.5 km/h 14.0 mph /  22.5 km/h 77 % 0.00 in /  0 mm 0 W/m2
20:26 48.0 °F /  8.9 °C 41.2 °F /  5.1 °C 30.38 in /  1028.7 hPa NW 9.0 mph /  14.5 km/h 16.0 mph /  25.7 km/h 77 % 0.00 in /  0 mm 0 W/m2
20:31 48.0 °F /  8.9 °C 41.5 °F /  5.3 °C 30.39 in /  1029 hPa NW 8.0 mph /  12.9 km/h 16.0 mph /  25.7 km/h 78 % 0.00 in /  0 mm 0 W/m2
20:36 48.0 °F /  8.9 °C 41.5 °F /  5.3 °C 30.38 in /  1028.7 hPa WNW 8.0 mph /  12.9 km/h 16.0 mph /  25.7 km/h 78 % 0.00 in /  0 mm 0 W/m2
20:41 48.0 °F /  8.9 °C 41.5 °F /  5.3 °C 30.38 in /  1028.7 hPa WNW 8.0 mph /  12.9 km/h 16.0 mph /  25.7 km/h 78 % 0.00 in /  0 mm 0 W/m2
20:46 48.0 °F /  8.9 °C 41.5 °F /  5.3 °C 30.39 in /  1029 hPa WNW 7.0 mph /  11.3 km/h 14.0 mph /  22.5 km/h 78 % 0.00 in /  0 mm 0 W/m2
20:51 48.0 °F /  8.9 °C 41.5 °F /  5.3 °C 30.39 in /  1029 hPa WNW 8.0 mph /  12.9 km/h 14.0 mph /  22.5 km/h 78 % 0.00 in /  0 mm 0 W/m2
20:56 48.0 °F /  8.9 °C 41.5 °F /  5.3 °C 30.39 in /  1029 hPa WNW 7.0 mph /  11.3 km/h 14.0 mph /  22.5 km/h 78 % 0.00 in /  0 mm 0 W/m2
21:01 48.0 °F /  8.9 °C 41.5 °F /  5.3 °C 30.39 in /  1029 hPa WNW 6.0 mph /  9.7 km/h 14.0 mph /  22.5 km/h 78 % 0.00 in /  0 mm 0 W/m2
21:06 48.0 °F /  8.9 °C 41.5 °F /  5.3 °C 30.39 in /  1029 hPa WNW 6.0 mph /  9.7 km/h 12.0 mph /  19.3 km/h 78 % 0.00 in /  0 mm 0 W/m2
21:11 48.0 °F /  8.9 °C 41.5 °F /  5.3 °C 30.39 in /  1029 hPa WNW 7.0 mph /  11.3 km/h 16.0 mph /  25.7 km/h 78 % 0.00 in /  0 mm 0 W/m2
21:16 47.8 °F /  8.8 °C 41.3 °F /  5.2 °C 30.39 in /  1029 hPa NW 6.0 mph /  9.7 km/h 16.0 mph /  25.7 km/h 78 % 0.00 in /  0 mm 0 W/m2
21:21 47.8 °F /  8.8 °C 41.3 °F /  5.2 °C 30.39 in /  1029 hPa NW 5.0 mph /  8 km/h 10.0 mph /  16.1 km/h 78 % 0.00 in /  0 mm 0 W/m2
21:26 47.8 °F /  8.8 °C 41.6 °F /  5.3 °C 30.39 in /  1029 hPa WNW 6.0 mph /  9.7 km/h 14.0 mph /  22.5 km/h 79 % 0.00 in /  0 mm 0 W/m2
21:31 47.8 °F /  8.8 °C 41.6 °F /  5.3 °C 30.39 in /  1029 hPa NW 7.0 mph /  11.3 km/h 14.0 mph /  22.5 km/h 79 % 0.00 in /  0 mm 0 W/m2
21:36 47.7 °F /  8.7 °C 41.5 °F /  5.3 °C 30.39 in /  1029 hPa NW 7.0 mph /  11.3 km/h 13.0 mph /  20.9 km/h 79 % 0.00 in /  0 mm 0 W/m2
21:41 47.5 °F /  8.6 °C 41.3 °F /  5.2 °C 30.39 in /  1029 hPa WNW 7.0 mph /  11.3 km/h 15.0 mph /  24.1 km/h 79 % 0.00 in /  0 mm 0 W/m2
21:46 47.5 °F /  8.6 °C 41.3 °F /  5.2 °C 30.39 in /  1029 hPa WNW 7.0 mph /  11.3 km/h 15.0 mph /  24.1 km/h 79 % 0.00 in /  0 mm 0 W/m2
21:51 47.3 °F /  8.5 °C 41.4 °F /  5.2 °C 30.38 in /  1028.7 hPa WNW 6.0 mph /  9.7 km/h 14.0 mph /  22.5 km/h 80 % 0.00 in /  0 mm 0 W/m2
21:56 47.1 °F /  8.4 °C 41.3 °F /  5.2 °C 30.39 in /  1029 hPa WNW 8.0 mph /  12.9 km/h 14.0 mph /  22.5 km/h 80 % 0.00 in /  0 mm 0 W/m2
22:01 47.1 °F /  8.4 °C 41.3 °F /  5.2 °C 30.38 in /  1028.7 hPa WNW 8.0 mph /  12.9 km/h 14.0 mph /  22.5 km/h 80 % 0.00 in /  0 mm 0 W/m2
22:06 46.9 °F /  8.3 °C 41.4 °F /  5.2 °C 30.38 in /  1028.7 hPa WNW 8.0 mph /  12.9 km/h 14.0 mph /  22.5 km/h 81 % 0.00 in /  0 mm 0 W/m2
22:11 46.8 °F /  8.2 °C 41.2 °F /  5.1 °C 30.39 in /  1029 hPa WNW 8.0 mph /  12.9 km/h 14.0 mph /  22.5 km/h 81 % 0.00 in /  0 mm 0 W/m2
22:13 46.8 °F /  8.2 °C 41.2 °F /  5.1 °C 30.38 in /  1028.7 hPa WNW 9.0 mph /  14.5 km/h 14.0 mph /  22.5 km/h 81 % 0.00 in /  0 mm 0 W/m2
22:18 46.8 °F /  8.2 °C 41.2 °F /  5.1 °C 30.39 in /  1029 hPa WNW 8.0 mph /  12.9 km/h 13.0 mph /  20.9 km/h 81 % 0.00 in /  0 mm 0 W/m2
22:19 46.6 °F /  8.1 °C 41.1 °F /  5.1 °C 30.38 in /  1028.7 hPa WNW 8.0 mph /  12.9 km/h 13.0 mph /  20.9 km/h 81 % 0.00 in /  0 mm 0 W/m2
22:24 46.6 °F /  8.1 °C 41.4 °F /  5.2 °C 30.38 in /  1028.7 hPa WNW 8.0 mph /  12.9 km/h 12.0 mph /  19.3 km/h 82 % 0.00 in /  0 mm 0 W/m2
22:29 46.4 °F /  8 °C 41.2 °F /  5.1 °C 30.39 in /  1029 hPa WNW 7.0 mph /  11.3 km/h 11.0 mph /  17.7 km/h 82 % 0.00 in /  0 mm 0 W/m2
22:34 46.2 °F /  7.9 °C 41.0 °F /  5 °C 30.39 in /  1029 hPa WNW 7.0 mph /  11.3 km/h 10.0 mph /  16.1 km/h 82 % 0.00 in /  0 mm 0 W/m2
22:39 46.0 °F /  7.8 °C 41.2 °F /  5.1 °C 30.38 in /  1028.7 hPa WNW 7.0 mph /  11.3 km/h 13.0 mph /  20.9 km/h 83 % 0.00 in /  0 mm 0 W/m2
22:44 46.0 °F /  7.8 °C 41.2 °F /  5.1 °C 30.39 in /  1029 hPa WNW 6.0 mph /  9.7 km/h 13.0 mph /  20.9 km/h 83 % 0.00 in /  0 mm 0 W/m2
22:49 45.9 °F /  7.7 °C 41.0 °F /  5 °C 30.38 in /  1028.7 hPa WNW 5.0 mph /  8 km/h 10.0 mph /  16.1 km/h 83 % 0.00 in /  0 mm 0 W/m2
22:54 45.7 °F /  7.6 °C 40.8 °F /  4.9 °C 30.38 in /  1028.7 hPa WNW 4.0 mph /  6.4 km/h 9.0 mph /  14.5 km/h 83 % 0.00 in /  0 mm 0 W/m2
22:59 45.5 °F /  7.5 °C 40.6 °F /  4.8 °C 30.38 in /  1028.7 hPa WNW 4.0 mph /  6.4 km/h 9.0 mph /  14.5 km/h 83 % 0.00 in /  0 mm 0 W/m2
23:04 45.3 °F /  7.4 °C 40.5 °F /  4.7 °C 30.38 in /  1028.7 hPa WNW 3.0 mph /  4.8 km/h 7.0 mph /  11.3 km/h 83 % 0.00 in /  0 mm 0 W/m2
23:09 45.1 °F /  7.3 °C 40.6 °F /  4.8 °C 30.38 in /  1028.7 hPa WNW 2.0 mph /  3.2 km/h 7.0 mph /  11.3 km/h 84 % 0.00 in /  0 mm 0 W/m2
23:14 45.0 °F /  7.2 °C 40.4 °F /  4.7 °C 30.38 in /  1028.7 hPa WNW 1.0 mph /  1.6 km/h 4.0 mph /  6.4 km/h 84 % 0.00 in /  0 mm 0 W/m2
23:19 44.8 °F /  7.1 °C 40.2 °F /  4.6 °C 30.38 in /  1028.7 hPa WNW 2.0 mph /  3.2 km/h 5.0 mph /  8 km/h 84 % 0.00 in /  0 mm 0 W/m2
23:24 44.6 °F /  7 °C 40.4 °F /  4.7 °C 30.38 in /  1028.7 hPa WNW 2.0 mph /  3.2 km/h 5.0 mph /  8 km/h 85 % 0.00 in /  0 mm 0 W/m2
23:29 44.4 °F /  6.9 °C 40.2 °F /  4.6 °C 30.38 in /  1028.7 hPa West 2.0 mph /  3.2 km/h 5.0 mph /  8 km/h 85 % 0.00 in /  0 mm 0 W/m2
23:34 44.2 °F /  6.8 °C 40.0 °F /  4.4 °C 30.38 in /  1028.7 hPa West 2.0 mph /  3.2 km/h 5.0 mph /  8 km/h 85 % 0.00 in /  0 mm 0 W/m2
23:39 44.1 °F /  6.7 °C 39.8 °F /  4.3 °C 30.38 in /  1028.7 hPa West 2.0 mph /  3.2 km/h 4.0 mph /  6.4 km/h 85 % 0.00 in /  0 mm 0 W/m2
23:44 43.9 °F /  6.6 °C 39.7 °F /  4.3 °C 30.38 in /  1028.7 hPa West 1.0 mph /  1.6 km/h 4.0 mph /  6.4 km/h 85 % 0.00 in /  0 mm 0 W/m2
23:49 43.5 °F /  6.4 °C 39.6 °F /  4.2 °C 30.37 in /  1028.3 hPa West 1.0 mph /  1.6 km/h 4.0 mph /  6.4 km/h 86 % 0.00 in /  0 mm 0 W/m2
23:54 43.3 °F /  6.3 °C 39.4 °F /  4.1 °C 30.38 in /  1028.7 hPa WNW 2.0 mph /  3.2 km/h 4.0 mph /  6.4 km/h 86 % 0.00 in /  0 mm 0 W/m2
Delerius-Weather
Compliments of Weather Underground - 2.25 mb

Data updates at regular intervals.